Time;durP1;ratioP1;P1;durP2;ratioP2;P2;SDS_P1;SDS_P2;PMS_P1;PMS_P2;Temp;Humidity;BMP_temperature;BMP_pressure;BME280_temperature;BME280_humidity;BME280_pressure;Samples;Min_cycle;Max_cycle;Signal;HPM_P1;HPM_P2
2023/03/13 00:01:48;;;;;;;18.48;5.65;;;;;;;8.70;95.21;100301.88;6058711;19;20007;-77
2023/03/13 00:03:56;;;;;;;14.50;5.10;;;;;;;8.71;95.65;100293.09;6101216;19;20012;-78
2023/03/13 00:06:01;;;;;;;19.88;5.05;;;;;;;8.73;95.90;100283.41;6103292;19;20023;-78
2023/03/13 00:08:10;;;;;;;20.92;5.43;;;;;;;8.75;95.78;100278.97;6100991;19;20079;-77
2023/03/13 00:10:23;;;;;;;13.88;5.50;;;;;;;8.77;95.63;100271.91;6080067;19;20691;-77
2023/03/13 00:12:31;;;;;;;17.30;5.88;;;;;;;8.82;95.66;100266.44;6103123;19;20030;-77
2023/03/13 00:14:46;;;;;;;16.02;6.88;;;;;;;8.81;95.85;100262.97;6082705;19;20043;-78
2023/03/13 00:16:53;;;;;;;18.42;6.47;;;;;;;8.82;96.14;100253.34;6081444;19;20029;-79
2023/03/13 00:19:10;;;;;;;16.38;6.25;;;;;;;8.81;95.79;100238.56;6105670;19;20011;-78
2023/03/13 00:21:16;;;;;;;15.05;5.55;;;;;;;8.87;95.93;100236.50;6101214;19;20325;-77
2023/03/13 00:23:27;;;;;;;17.48;6.03;;;;;;;8.90;95.76;100219.78;6081945;19;20006;-78
2023/03/13 00:25:33;;;;;;;15.98;6.43;;;;;;;8.91;96.02;100218.91;6103712;19;20014;-78
2023/03/13 00:27:40;;;;;;;18.05;6.28;;;;;;;8.91;96.18;100216.28;6105751;19;20528;-77
2023/03/13 00:29:55;;;;;;;15.90;5.78;;;;;;;8.93;95.93;100211.81;6109543;19;20015;-80
2023/03/13 00:32:04;;;;;;;17.45;5.53;;;;;;;8.98;96.11;100207.25;6106125;19;20006;-79
2023/03/13 00:34:16;;;;;;;16.23;6.18;;;;;;;8.92;96.16;100203.09;6091080;19;20007;-79
2023/03/13 00:36:24;;;;;;;19.33;6.20;;;;;;;9.02;96.17;100208.78;6110465;19;20018;-80
2023/03/13 00:38:32;;;;;;;16.70;5.80;;;;;;;9.02;95.92;100193.91;6113705;19;20010;-80
2023/03/13 00:40:38;;;;;;;17.45;6.50;;;;;;;9.01;95.95;100175.66;6097989;19;20011;-81
2023/03/13 00:42:46;;;;;;;14.00;5.63;;;;;;;9.04;95.83;100174.66;6098061;19;20106;-83
2023/03/13 00:44:54;;;;;;;18.58;5.25;;;;;;;9.04;95.87;100165.03;6119419;19;20014;-83
2023/03/13 00:47:04;;;;;;;15.25;6.18;;;;;;;9.02;96.15;100156.38;6110317;19;20039;-83
2023/03/13 00:49:14;;;;;;;15.40;5.30;;;;;;;9.02;96.18;100146.72;6109366;19;20720;-83
2023/03/13 00:51:29;;;;;;;12.68;5.72;;;;;;;9.08;96.36;100155.25;6109617;19;20010;-83
2023/03/13 00:53:34;;;;;;;20.00;6.25;;;;;;;9.08;96.18;100142.97;6091348;19;20015;-82
2023/03/13 00:55:43;;;;;;;13.55;5.57;;;;;;;9.04;96.25;100151.06;6109009;19;20011;-82
2023/03/13 00:57:49;;;;;;;17.08;6.22;;;;;;;9.07;96.55;100136.06;6109471;19;20017;-83
2023/03/13 01:00:16;;;;;;;13.93;5.85;;;;;;;9.14;96.34;100140.09;6109308;19;20014;-82
2023/03/13 01:02:21;;;;;;;22.90;7.03;;;;;;;9.15;96.19;100122.59;6086266;19;20070;-83
2023/03/13 01:04:31;;;;;;;18.88;6.93;;;;;;;9.17;96.22;100126.84;6106477;19;20066;-82
2023/03/13 01:06:45;;;;;;;13.57;6.90;;;;;;;9.22;96.37;100118.78;6105957;19;20502;-82
2023/03/13 01:08:54;;;;;;;20.77;6.93;;;;;;;9.25;96.45;100125.66;6104420;19;20392;-80
2023/03/13 01:11:03;;;;;;;17.85;8.13;;;;;;;9.28;96.32;100108.00;6105457;19;20325;-82
2023/03/13 01:13:08;;;;;;;20.30;8.38;;;;;;;9.29;96.48;100106.22;6099923;19;20014;-81
2023/03/13 01:15:15;;;;;;;19.17;7.40;;;;;;;9.28;96.49;100099.28;6102813;19;20661;-80
2023/03/13 01:17:23;;;;;;;21.67;7.53;;;;;;;9.36;96.31;100098.00;6077885;19;20018;-81
2023/03/13 01:19:32;;;;;;;18.48;7.72;;;;;;;9.36;96.36;100081.41;6101575;19;20007;-80
2023/03/13 01:21:53;;;;;;;19.27;8.13;;;;;;;9.35;96.26;100080.56;6106506;19;20007;-81
2023/03/13 01:24:05;;;;;;;20.15;8.55;;;;;;;9.36;96.47;100070.94;6101677;19;20707;-80
2023/03/13 01:26:18;;;;;;;22.35;10.15;;;;;;;9.40;96.38;100073.34;6082942;19;20038;-81
2023/03/13 01:28:25;;;;;;;25.10;10.02;;;;;;;9.40;96.24;100072.47;6105306;19;20019;-81
2023/03/13 01:30:38;;;;;;;19.02;8.13;;;;;;;9.47;96.40;100063.38;6101177;19;20046;-79
2023/03/13 01:32:43;;;;;;;26.35;9.27;;;;;;;9.49;96.47;100060.72;6080324;19;20014;-79
2023/03/13 01:34:52;;;;;;;25.27;10.30;;;;;;;9.46;96.66;100051.22;6102963;19;20535;-79
2023/03/13 01:36:57;;;;;;;21.88;9.13;;;;;;;9.47;96.77;100049.44;6104161;19;20010;-81
2023/03/13 01:39:03;;;;;;;21.52;9.57;;;;;;;9.46;97.12;100045.97;6103399;19;20505;-80
2023/03/13 01:41:15;;;;;;;21.08;10.23;;;;;;;9.52;96.79;100050.06;6099697;19;20022;-79
2023/03/13 01:43:24;;;;;;;22.90;10.20;;;;;;;9.55;96.79;100044.66;6103938;19;20015;-81
2023/03/13 01:45:59;;;;;;;21.13;9.18;;;;;;;9.55;96.95;100037.63;6105614;19;20010;-79
2023/03/13 01:48:06;;;;;;;22.02;9.00;;;;;;;9.56;97.30;100033.25;6105213;19;20006;-79
2023/03/13 01:50:17;;;;;;;23.42;8.90;;;;;;;9.63;97.19;100018.91;6101963;19;20006;-77
2023/03/13 01:52:30;;;;;;;25.83;9.77;;;;;;;9.59;97.34;100014.75;6103505;19;20044;-80
2023/03/13 01:54:41;;;;;;;26.23;10.43;;;;;;;9.66;97.34;100005.63;6061230;19;20014;-79
2023/03/13 01:56:53;;;;;;;22.63;10.45;;;;;;;9.64;97.24;100004.88;6108994;19;20015;-79
2023/03/13 01:59:02;;;;;;;24.08;10.35;;;;;;;9.66;97.50;99995.13;6064917;19;20039;-80
2023/03/13 02:01:09;;;;;;;21.88;11.25;;;;;;;9.73;97.25;100006.19;6092803;19;20010;-79
2023/03/13 02:03:21;;;;;;;20.83;9.88;;;;;;;9.81;96.98;99988.28;6100309;19;20018;-79
2023/03/13 02:05:32;;;;;;;27.23;10.27;;;;;;;9.78;97.19;100009.41;6081296;19;20021;-79
2023/03/13 02:07:43;;;;;;;19.17;9.48;;;;;;;9.84;96.93;99986.31;6102248;19;20013;-79
2023/03/13 02:09:54;;;;;;;18.33;8.80;;;;;;;9.85;97.03;99984.56;6103015;19;20006;-80
2023/03/13 02:12:04;;;;;;;23.67;10.93;;;;;;;9.88;97.34;99984.41;6105622;19;21267;-79
2023/03/13 02:14:09;;;;;;;17.58;9.02;;;;;;;9.99;97.13;99978.59;6100240;19;20006;-78
2023/03/13 02:16:24;;;;;;;21.05;10.60;;;;;;;9.95;97.25;99972.66;6102289;19;20471;-79
2023/03/13 02:18:34;;;;;;;17.80;8.68;;;;;;;9.98;97.11;99974.28;6077652;19;20154;-79
2023/03/13 02:20:46;;;;;;;19.70;9.30;;;;;;;10.05;97.28;99978.28;6096800;19;20614;-79
2023/03/13 02:23:01;;;;;;;17.45;9.07;;;;;;;10.07;97.08;99977.28;6084119;19;20014;-79
2023/03/13 02:25:15;;;;;;;23.38;9.40;;;;;;;10.14;96.91;99971.69;6101346;19;20019;-79
2023/03/13 02:27:26;;;;;;;16.95;9.43;;;;;;;10.14;97.21;99964.69;6101996;19;20541;-78
2023/03/13 02:29:31;;;;;;;22.00;9.30;;;;;;;10.11;97.34;99952.56;6108843;19;22588;-80
2023/03/13 02:31:43;;;;;;;18.20;9.25;;;;;;;10.17;97.15;99959.28;6108310;19;20461;-80
2023/03/13 02:33:51;;;;;;;21.83;10.25;;;;;;;10.25;97.18;99964.13;6108815;19;20562;-79
2023/03/13 02:36:02;;;;;;;21.55;10.80;;;;;;;10.37;96.38;99954.75;6085992;19;20229;-79
2023/03/13 02:38:23;;;;;;;25.58;10.82;;;;;;;10.37;96.72;99971.34;6106436;19;20050;-78
2023/03/13 02:40:41;;;;;;;21.47;10.73;;;;;;;10.47;96.16;99967.31;6106172;19;20018;-79
2023/03/13 02:42:52;;;;;;;28.40;10.15;;;;;;;10.50;95.99;99963.66;6108663;19;20015;-78
2023/03/13 02:44:57;;;;;;;22.90;11.18;;;;;;;10.53;96.18;99961.75;6101444;19;20010;-78
2023/03/13 02:47:03;;;;;;;25.10;10.80;;;;;;;10.61;95.67;99948.19;6106550;19;20015;-78
2023/03/13 02:49:25;;;;;;;23.88;11.95;;;;;;;10.56;95.77;99958.09;6103924;19;20355;-79
2023/03/13 02:51:42;;;;;;;21.70;10.40;;;;;;;10.64;95.34;99968.19;6084977;19;20023;-79
2023/03/13 02:53:50;;;;;;;21.40;10.90;;;;;;;10.63;95.41;99945.47;6104499;19;20014;-78
2023/03/13 02:55:55;;;;;;;22.15;10.60;;;;;;;10.71;95.19;99938.00;6084990;19;20006;-77
2023/03/13 02:58:07;;;;;;;21.00;9.70;;;;;;;10.71;95.12;99936.22;6104286;19;20014;-79
2023/03/13 03:00:20;;;;;;;19.02;10.20;;;;;;;10.75;95.08;99926.41;6083419;19;20090;-77
2023/03/13 03:02:28;;;;;;;19.85;9.50;;;;;;;10.72;94.95;99922.16;6107745;19;20011;-78
2023/03/13 03:04:33;;;;;;;22.05;9.55;;;;;;;10.74;94.97;99912.41;6089501;19;20573;-78
2023/03/13 03:06:41;;;;;;;21.48;9.38;;;;;;;10.82;94.61;99925.13;6106118;19;20626;-77
2023/03/13 03:08:49;;;;;;;19.63;8.05;;;;;;;10.85;94.44;99913.56;6075902;19;20083;-78
2023/03/13 03:11:06;;;;;;;13.82;7.40;;;;;;;10.91;94.44;99935.13;6078220;19;20086;-77
2023/03/13 03:13:14;;;;;;;17.80;6.90;;;;;;;10.98;94.13;99904.09;6095278;19;20558;-78
2023/03/13 03:15:24;;;;;;;14.65;6.38;;;;;;;10.97;94.02;99918.13;6104859;19;20738;-79
2023/03/13 03:17:31;;;;;;;14.55;6.15;;;;;;;11.02;93.95;99905.59;6066556;19;20014;-81
2023/03/13 03:19:37;;;;;;;14.25;6.88;;;;;;;11.08;94.00;99920.16;6107215;19;20015;-80
2023/03/13 03:21:50;;;;;;;10.50;6.25;;;;;;;11.07;94.11;99913.22;6089404;19;20003;-82
2023/03/13 03:24:02;;;;;;;15.07;6.38;;;;;;;11.03;94.02;99920.41;6107623;19;20481;-80
2023/03/13 03:26:11;;;;;;;12.88;6.18;;;;;;;10.99;94.12;99919.75;6110698;19;20638;-81
2023/03/13 03:28:20;;;;;;;14.18;6.75;;;;;;;11.05;94.38;99922.97;6109848;19;20553;-81
2023/03/13 03:30:28;;;;;;;14.68;6.85;;;;;;;11.10;94.13;99926.19;6106528;19;20022;-80
2023/03/13 03:32:34;;;;;;;19.67;6.68;;;;;;;11.11;94.16;99920.84;6109106;19;20018;-80
2023/03/13 03:34:45;;;;;;;15.07;7.68;;;;;;;11.13;94.41;99908.44;6117639;19;20086;-81
2023/03/13 03:36:51;;;;;;;15.70;7.50;;;;;;;11.10;94.50;99905.16;6122575;19;20018;-79
2023/03/13 03:38:58;;;;;;;14.63;7.60;;;;;;;11.06;94.67;99904.47;6118211;19;20097;-82
2023/03/13 03:41:07;;;;;;;18.35;7.53;;;;;;;11.07;94.94;99907.97;6124778;19;20031;-82
2023/03/13 03:43:18;;;;;;;13.93;7.90;;;;;;;11.06;94.86;99891.34;6121440;19;20035;-81
2023/03/13 03:45:23;;;;;;;16.00;7.68;;;;;;;11.02;95.27;99902.13;6105828;19;20017;-80
2023/03/13 03:47:28;;;;;;;17.40;7.40;;;;;;;11.03;95.28;99904.63;6107153;19;20044;-80
2023/03/13 03:49:36;;;;;;;15.45;7.43;;;;;;;11.04;95.20;99902.88;6126200;19;20010;-81
2023/03/13 03:51:41;;;;;;;15.10;7.40;;;;;;;11.08;95.51;99905.22;6126875;19;20125;-80
2023/03/13 03:53:48;;;;;;;15.82;7.80;;;;;;;11.01;95.79;99892.53;6123189;19;20014;-79
2023/03/13 03:55:53;;;;;;;14.38;7.45;;;;;;;11.05;95.62;99894.03;6116869;19;20621;-80
2023/03/13 03:57:59;;;;;;;13.45;7.60;;;;;;;11.03;95.47;99898.53;6115227;19;20018;-78
2023/03/13 04:00:12;;;;;;;16.27;7.97;;;;;;;11.01;95.82;99888.13;6111897;19;20039;-77
2023/03/13 04:02:24;;;;;;;16.20;8.38;;;;;;;11.05;95.59;99888.78;6109685;19;20010;-79
2023/03/13 04:04:39;;;;;;;18.17;7.75;;;;;;;11.11;95.85;99888.41;6105878;19;20018;-79
2023/03/13 04:06:43;;;;;;;15.93;6.85;;;;;;;11.07;95.64;99882.50;6109163;19;20006;-79
2023/03/13 04:08:54;;;;;;;14.55;7.25;;;;;;;11.07;95.72;99877.25;6101663;19;20007;-79
2023/03/13 04:11:04;;;;;;;14.50;7.40;;;;;;;10.99;95.88;99880.31;6110086;19;20401;-78
2023/03/13 04:13:13;;;;;;;14.48;7.70;;;;;;;11.05;95.93;99880.91;6084711;19;20340;-78
2023/03/13 04:15:25;;;;;;;16.33;7.32;;;;;;;11.07;96.04;99882.50;6088117;19;20400;-79
2023/03/13 04:17:30;;;;;;;15.18;7.88;;;;;;;11.03;95.98;99880.13;6092251;19;20019;-80
2023/03/13 04:19:35;;;;;;;15.13;7.18;;;;;;;11.03;96.31;99875.72;6112985;19;20015;-80
2023/03/13 04:21:40;;;;;;;17.00;7.13;;;;;;;11.03;96.28;99875.72;6113738;19;20007;-79
2023/03/13 04:23:45;;;;;;;15.32;7.95;;;;;;;11.05;96.10;99879.09;6112845;19;20019;-79
2023/03/13 04:25:50;;;;;;;18.55;7.82;;;;;;;11.06;96.36;99888.72;6110482;19;20146;-80
2023/03/13 04:27:55;;;;;;;16.17;7.80;;;;;;;11.13;96.01;99883.94;6112649;19;20023;-81
2023/03/13 04:30:06;;;;;;;14.98;8.50;;;;;;;11.13;96.06;99876.88;6090084;19;20463;-80
2023/03/13 04:32:14;;;;;;;15.48;7.80;;;;;;;11.10;95.97;99861.28;6093476;19;20025;-80
2023/03/13 04:34:19;;;;;;;16.05;7.95;;;;;;;11.08;96.03;99862.31;6111753;19;20017;-80
2023/03/13 04:36:24;;;;;;;14.23;8.55;;;;;;;11.05;96.09;99873.00;6067528;19;20030;-80
2023/03/13 04:38:32;;;;;;;19.88;9.23;;;;;;;11.13;95.48;99863.72;6085753;19;20101;-79
2023/03/13 04:40:37;;;;;;;15.13;9.15;;;;;;;11.07;95.89;99856.22;6106153;19;20014;-80
2023/03/13 04:42:46;;;;;;;15.40;7.43;;;;;;;11.11;95.69;99863.00;6090452;19;20613;-80
2023/03/13 04:44:55;;;;;;;15.35;7.25;;;;;;;11.12;95.39;99856.78;6107320;19;20495;-79
2023/03/13 04:47:02;;;;;;;15.82;6.63;;;;;;;11.18;94.86;99847.69;6109407;19;20018;-80
2023/03/13 04:49:13;;;;;;;14.32;6.85;;;;;;;11.22;94.63;99830.81;6097673;19;20018;-80
2023/03/13 04:51:21;;;;;;;14.65;5.90;;;;;;;11.19;94.52;99831.84;6101973;19;20025;-79
2023/03/13 04:53:26;;;;;;;13.68;6.22;;;;;;;11.26;93.93;99842.81;6106789;19;20819;-79
2023/03/13 04:55:30;;;;;;;15.82;6.10;;;;;;;11.29;93.30;99826.84;6109919;19;20006;-78
2023/03/13 04:57:40;;;;;;;12.63;5.45;;;;;;;11.38;92.87;99831.59;6106672;19;20416;-79
2023/03/13 04:59:45;;;;;;;12.05;5.55;;;;;;;11.43;91.91;99829.53;6104043;19;20596;-79
2023/03/13 05:01:50;;;;;;;16.05;4.63;;;;;;;11.49;91.43;99824.84;6106090;19;20044;-77
2023/03/13 05:03:55;;;;;;;13.45;4.82;;;;;;;11.46;90.99;99819.75;6100989;19;20028;-79
2023/03/13 05:06:03;;;;;;;14.02;5.03;;;;;;;11.48;91.00;99823.13;6104139;19;20022;-79
2023/03/13 05:08:10;;;;;;;14.70;5.22;;;;;;;11.45;90.90;99818.88;6104741;19;20149;-79
2023/03/13 05:10:15;;;;;;;12.23;4.82;;;;;;;11.55;89.84;99829.72;6101370;19;20070;-80
2023/03/13 05:12:21;;;;;;;12.23;5.25;;;;;;;11.53;89.86;99797.38;6100107;19;20467;-79
2023/03/13 05:14:38;;;;;;;13.50;4.57;;;;;;;11.49;90.37;99793.25;6100509;19;20021;-79
2023/03/13 05:16:44;;;;;;;10.43;4.53;;;;;;;11.58;89.21;99795.31;6100300;19;20021;-79
2023/03/13 05:18:50;;;;;;;12.43;4.50;;;;;;;11.52;89.59;99787.81;6098267;19;20682;-79
2023/03/13 05:20:55;;;;;;;13.75;4.85;;;;;;;11.51;89.74;99791.38;6094539;19;20014;-79
2023/03/13 05:23:02;;;;;;;14.48;4.90;;;;;;;11.53;89.03;99798.25;6097393;19;20182;-79
2023/03/13 05:25:07;;;;;;;15.50;4.68;;;;;;;11.60;88.65;99791.66;6097376;19;20022;-78
2023/03/13 05:27:13;;;;;;;12.98;4.50;;;;;;;11.75;87.30;99779.34;6093595;19;20018;-78
2023/03/13 05:29:19;;;;;;;11.35;5.38;;;;;;;11.75;86.98;99787.25;6077964;19;20051;-79
2023/03/13 05:31:24;;;;;;;12.27;4.43;;;;;;;11.77;86.65;99795.88;6096290;19;20022;-82
2023/03/13 05:33:29;;;;;;;12.73;4.40;;;;;;;11.76;86.52;99770.50;6098879;19;20014;-78
2023/03/13 05:35:34;;;;;;;10.25;4.53;;;;;;;11.73;86.46;99767.22;6101625;19;20059;-81
2023/03/13 05:37:39;;;;;;;14.98;4.28;;;;;;;11.79;85.76;99772.94;6102140;19;20042;-80
2023/03/13 05:39:49;;;;;;;13.55;4.10;;;;;;;11.85;85.20;99777.00;6081846;19;20023;-80
2023/03/13 05:41:57;;;;;;;14.38;4.32;;;;;;;11.80;85.46;99766.75;6104278;19;20056;-82
2023/03/13 05:44:06;;;;;;;11.50;4.78;;;;;;;11.77;85.87;99773.97;6103093;19;20006;-80
2023/03/13 05:46:11;;;;;;;14.00;4.80;;;;;;;11.82;85.14;99771.88;6105398;19;20011;-81
2023/03/13 05:48:17;;;;;;;16.30;5.13;;;;;;;11.78;85.10;99767.78;6102485;19;20134;-81
2023/03/13 05:50:26;;;;;;;9.52;4.30;;;;;;;11.78;85.07;99767.78;6103594;19;20006;-80
2023/03/13 05:52:32;;;;;;;13.93;5.25;;;;;;;11.88;84.29;99768.09;6102570;19;20035;-81
2023/03/13 05:54:37;;;;;;;12.65;3.58;;;;;;;11.81;84.59;99754.41;6104611;19;20007;-80
2023/03/13 05:56:47;;;;;;;7.55;3.40;;;;;;;11.85;84.34;99763.81;6101767;19;20018;-78
2023/03/13 05:59:01;;;;;;;9.52;4.55;;;;;;;11.81;84.50;99752.63;6081301;19;20093;-80
2023/03/13 06:01:16;;;;;;;12.25;4.03;;;;;;;11.79;84.43;99759.75;6100649;19;20351;-80
2023/03/13 06:03:21;;;;;;;12.02;4.25;;;;;;;11.85;84.39;99764.66;6104703;19;20084;-79
2023/03/13 06:05:28;;;;;;;10.85;3.88;;;;;;;11.80;84.36;99766.75;6083907;19;20031;-79
2023/03/13 06:07:33;;;;;;;15.35;4.10;;;;;;;11.83;84.38;99777.06;6099781;19;20023;-78
2023/03/13 06:09:41;;;;;;;10.55;4.25;;;;;;;11.79;84.69;99756.28;6104785;19;20010;-79
2023/03/13 06:11:52;;;;;;;9.55;3.45;;;;;;;11.92;84.49;99774.84;6105615;19;20035;-78
2023/03/13 06:13:58;;;;;;;11.63;4.25;;;;;;;11.82;85.04;99780.66;6105033;19;20090;-79
2023/03/13 06:16:03;;;;;;;14.73;4.25;;;;;;;11.80;85.29;99781.69;6101546;19;20023;-79
2023/03/13 06:18:10;;;;;;;13.88;4.60;;;;;;;11.71;86.04;99779.63;6104710;19;20747;-76
2023/03/13 06:20:16;;;;;;;14.23;4.85;;;;;;;11.57;87.14;99778.69;6104803;19;20006;-79
2023/03/13 06:22:25;;;;;;;12.88;4.75;;;;;;;11.54;88.28;99788.56;6084873;19;20015;-79
2023/03/13 06:24:31;;;;;;;12.40;4.95;;;;;;;11.38;89.15;99765.81;6107185;19;20038;-79
2023/03/13 06:26:37;;;;;;;14.23;4.22;;;;;;;11.39;89.88;99775.41;6105878;19;20103;-79
2023/03/13 06:28:50;;;;;;;13.30;5.10;;;;;;;11.28;90.69;99784.88;6106913;19;20026;-79
2023/03/13 06:30:57;;;;;;;10.93;5.35;;;;;;;11.23;91.15;99793.03;6083336;19;20523;-79
2023/03/13 06:33:04;;;;;;;13.20;4.82;;;;;;;11.22;91.36;99794.00;6104151;19;20007;-79
2023/03/13 06:35:19;;;;;;;11.73;4.35;;;;;;;11.20;91.81;99780.94;6097657;19;20122;-77
2023/03/13 06:37:34;;;;;;;17.67;5.53;;;;;;;11.09;92.71;99788.63;6083779;19;20563;-78
2023/03/13 06:39:41;;;;;;;11.77;5.13;;;;;;;10.99;93.13;99785.69;6082725;19;20011;-81
2023/03/13 06:41:50;;;;;;;16.00;6.78;;;;;;;11.05;93.37;99789.72;6060601;19;20014;-78
2023/03/13 06:43:58;;;;;;;12.77;5.63;;;;;;;11.02;93.72;99787.28;6105803;19;20014;-78
2023/03/13 06:46:17;;;;;;;12.57;6.32;;;;;;;10.95;94.26;99788.56;5975496;19;20014;-74
2023/03/13 06:51:58;;;;;;;18.23;7.15;;;;;;;10.95;94.19;99772.78;5952044;19;20340;-76
2023/03/13 06:54:31;;;;;;;15.57;6.80;;;;;;;11.00;93.85;99776.00;6099863;19;20096;-76
2023/03/13 06:56:58;;;;;;;13.20;7.07;;;;;;;11.03;93.90;99775.81;6026012;19;20018;-76
2023/03/13 06:59:33;;;;;;;13.00;6.50;;;;;;;11.02;93.55;99774.13;6048789;19;20018;-75
2023/03/13 07:02:14;;;;;;;16.13;6.80;;;;;;;11.02;93.52;99770.66;6034846;19;20011;-76
2023/03/13 07:07:59;;;;;;;12.07;5.72;;;;;;;11.04;93.75;99768.81;6014988;19;20141;-75
2023/03/13 07:13:09;;;;;;;12.90;6.25;;;;;;;11.03;94.11;99765.31;6066244;19;20759;-74
2023/03/13 07:38:59;;;;;;;18.75;6.35;;;;;;;11.29;92.72;99791.81;5994849;19;20307;-77
2023/03/13 08:04:48;;;;;;;8.38;3.97;;;;;;;12.02;89.64;99770.69;5942863;19;20608;-74
2023/03/13 08:10:52;;;;;;;8.82;3.58;;;;;;;11.86;90.16;99750.59;5994913;19;20143;-74
2023/03/13 08:13:53;;;;;;;12.38;3.75;;;;;;;11.82;90.00;99753.47;5989300;19;20006;-75
2023/03/13 08:19:03;;;;;;;11.95;3.28;;;;;;;11.88;89.56;99752.28;6048915;19;20037;-74
2023/03/13 08:21:21;;;;;;;;;;;;;;;11.94;89.24;99742.19;5967071;19;20590;-74
2023/03/13 08:23:32;;;;;;;7.13;2.80;;;;;;;11.95;88.71;99753.56;6049121;19;19949;-74
2023/03/13 08:25:52;;;;;;;8.27;3.42;;;;;;;12.04;87.60;99729.31;6095942;19;20744;-74
2023/03/13 08:28:05;;;;;;;8.73;3.20;;;;;;;12.05;87.37;99734.44;6096799;19;20097;-75
2023/03/13 08:30:16;;;;;;;7.10;2.67;;;;;;;12.12;86.64;99736.72;6088371;19;20039;-75
2023/03/13 08:32:24;;;;;;;11.32;2.83;;;;;;;12.19;86.66;99732.72;6076030;19;20025;-75
2023/03/13 08:34:33;;;;;;;9.93;3.10;;;;;;;12.29;85.86;99725.91;6068729;19;20043;-75
2023/03/13 08:36:41;;;;;;;13.20;3.40;;;;;;;12.42;83.98;99732.06;6093965;19;20730;-74
2023/03/13 08:39:01;;;;;;;7.38;2.55;;;;;;;12.46;83.79;99743.25;6086542;19;20010;-74
2023/03/13 08:41:23;;;;;;;7.70;2.83;;;;;;;12.63;82.94;99721.03;6095530;19;20024;-75
2023/03/13 08:43:32;;;;;;;7.45;3.03;;;;;;;12.89;82.63;99732.47;5999403;19;20129;-75
2023/03/13 08:46:25;;;;;;;10.93;2.97;;;;;;;13.05;81.28;99748.94;6074928;19;20015;-74
2023/03/13 08:48:43;;;;;;;7.97;3.00;;;;;;;13.17;81.12;99745.47;6034633;19;20011;-74
2023/03/13 08:52:04;;;;;;;10.75;3.53;;;;;;;13.17;79.81;99712.97;6019896;19;20029;-75
2023/03/13 08:54:49;;;;;;;;;;;;;;;;;;;;;
2023/03/13 08:57:16;;;;;;;9.82;2.90;;;;;;;13.14;79.24;99721.09;6030714;19;20047;-74
2023/03/13 09:00:12;;;;;;;9.75;2.38;;;;;;;13.02;79.55;99706.94;5997963;19;20266;-74
2023/03/13 09:09:02;;;;;;;9.82;2.53;;;;;;;13.00;79.63;99721.19;6016990;19;20018;-73
2023/03/13 09:19:08;;;;;;;6.28;2.60;;;;;;;13.33;76.90;99689.88;5981992;19;20015;-75
2023/03/13 09:28:23;;;;;;;8.80;2.90;;;;;;;13.64;76.77;99657.81;5904203;19;20018;-76
2023/03/13 09:30:49;;;;;;;9.25;2.33;;;;;;;14.04;74.73;99672.44;5946760;19;20043;-76
2023/03/13 09:36:17;;;;;;;7.13;2.45;;;;;;;14.37;73.68;99644.44;6043786;19;20449;-76
2023/03/13 09:38:30;;;;;;;9.05;2.20;;;;;;;14.22;73.75;99661.47;6018817;19;20063;-76
2023/03/13 09:40:54;;;;;;;5.90;2.47;;;;;;;14.13;74.22;99644.50;6047905;19;20023;-77
2023/03/13 09:43:28;;;;;;;6.97;2.10;;;;;;;14.18;74.62;99637.06;6072386;19;20018;-76
2023/03/13 09:45:36;;;;;;;8.98;2.90;;;;;;;13.94;73.81;99623.88;6069756;19;21515;-77
2023/03/13 09:47:48;;;;;;;6.72;2.05;;;;;;;13.87;74.05;99632.38;6060560;19;20014;-76
2023/03/13 09:49:57;;;;;;;8.10;3.15;;;;;;;14.07;74.28;99628.28;6078294;19;20015;-77
2023/03/13 09:52:24;;;;;;;8.23;2.45;;;;;;;14.46;71.83;99619.16;6080256;19;20011;-77
2023/03/13 09:54:51;;;;;;;6.70;2.13;;;;;;;14.19;72.72;99635.25;6097502;19;20056;-77
2023/03/13 09:57:01;;;;;;;4.38;2.10;;;;;;;14.51;72.20;99627.56;6097926;19;20250;-77
2023/03/13 09:59:19;;;;;;;11.50;3.63;;;;;;;14.67;71.80;99619.34;6101911;19;20063;-77
2023/03/13 10:01:32;;;;;;;6.38;1.95;;;;;;;14.60;71.78;99602.25;6102801;19;20018;-77
2023/03/13 10:03:43;;;;;;;3.42;2.10;;;;;;;14.79;71.10;99617.53;6104165;19;20066;-78
2023/03/13 10:05:53;;;;;;;6.60;2.30;;;;;;;14.52;71.82;99612.53;6106392;19;20090;-78
2023/03/13 10:08:03;;;;;;;8.52;2.08;;;;;;;14.39;72.00;99616.09;6101521;19;20842;-77
2023/03/13 10:10:16;;;;;;;8.40;2.65;;;;;;;14.33;71.45;99623.69;6079717;19;20042;-77
2023/03/13 10:12:24;;;;;;;5.85;2.45;;;;;;;14.53;70.64;99632.75;6096601;19;20018;-78
2023/03/13 10:14:41;;;;;;;3.67;1.83;;;;;;;14.41;70.59;99647.72;6095969;19;20015;-78
2023/03/13 10:16:56;;;;;;;4.85;1.90;;;;;;;14.33;70.88;99623.69;6093493;19;20035;-78
2023/03/13 10:19:10;;;;;;;7.23;1.90;;;;;;;14.31;71.08;99594.72;6093693;19;20019;-77
2023/03/13 10:21:19;;;;;;;6.82;2.30;;;;;;;14.26;71.44;99621.47;6065930;19;20011;-78
2023/03/13 10:23:37;;;;;;;6.32;2.30;;;;;;;14.36;71.41;99642.78;6087354;19;20007;-78
2023/03/13 10:25:45;;;;;;;6.57;2.40;;;;;;;14.36;70.55;99613.72;6091048;19;20003;-78
2023/03/13 10:27:53;;;;;;;6.22;2.55;;;;;;;14.71;67.54;99620.75;6093498;19;20523;-77
2023/03/13 10:30:01;;;;;;;8.65;2.30;;;;;;;14.76;67.33;99646.88;6087965;19;20593;-78
2023/03/13 10:32:11;;;;;;;9.15;2.60;;;;;;;14.52;67.21;99618.66;6070579;19;20090;-78
2023/03/13 10:34:18;;;;;;;5.68;2.42;;;;;;;14.37;68.76;99623.31;6091748;19;20573;-78
2023/03/13 10:36:26;;;;;;;9.70;2.60;;;;;;;14.24;69.08;99627.84;6070955;19;20653;-78
2023/03/13 10:38:51;;;;;;;10.48;2.80;;;;;;;14.26;68.44;99616.19;6074301;19;20007;-79
2023/03/13 10:41:02;;;;;;;8.00;2.58;;;;;;;14.31;68.49;99615.84;6072590;19;20149;-78
2023/03/13 10:43:09;;;;;;;7.57;2.25;;;;;;;14.77;67.47;99608.88;6095955;19;20131;-78
2023/03/13 10:45:29;;;;;;;7.50;2.50;;;;;;;14.54;67.04;99606.22;6094714;19;20021;-77
2023/03/13 10:47:36;;;;;;;8.52;2.67;;;;;;;14.62;68.29;99602.97;6100345;19;20061;-79
2023/03/13 10:49:51;;;;;;;8.98;2.53;;;;;;;14.83;68.66;99603.97;6077837;19;20025;-81
2023/03/13 10:52:01;;;;;;;8.85;2.55;;;;;;;15.09;67.47;99572.81;6096997;19;20027;-78
2023/03/13 10:54:16;;;;;;;8.77;2.47;;;;;;;15.37;65.56;99591.75;6097133;19;20007;-78
2023/03/13 10:56:27;;;;;;;9.95;2.50;;;;;;;15.30;64.49;99583.50;6097300;19;20029;-78
2023/03/13 10:58:45;;;;;;;8.70;2.28;;;;;;;15.17;63.29;99588.06;6074748;19;20014;-79
2023/03/13 11:00:53;;;;;;;5.85;2.00;;;;;;;14.94;62.59;99581.94;6095607;19;20035;-79
2023/03/13 11:02:58;;;;;;;10.65;2.63;;;;;;;14.94;63.39;99597.81;6098443;19;20211;-78
2023/03/13 11:05:05;;;;;;;6.63;2.47;;;;;;;14.85;63.34;99594.09;6099783;19;20014;-79
2023/03/13 11:07:17;;;;;;;8.82;3.80;;;;;;;14.79;63.19;99593.72;6078374;19;20616;-76
2023/03/13 11:09:26;;;;;;;10.68;2.72;;;;;;;14.97;63.67;99602.03;6087999;19;20305;-78
2023/03/13 11:11:46;;;;;;;21.15;3.20;;;;;;;15.20;63.35;99610.81;6099264;19;20015;-78
2023/03/13 11:14:32;;;;;;;14.77;3.03;;;;;;;15.02;64.02;99602.50;6002658;19;20519;-76
2023/03/13 11:16:49;;;;;;;10.05;2.95;;;;;;;14.74;63.75;99604.66;6075392;19;20022;-78
2023/03/13 11:19:18;;;;;;;11.20;2.53;;;;;;;14.62;63.75;99603.81;6098478;19;20031;-80
2023/03/13 11:21:30;;;;;;;9.13;2.55;;;;;;;14.93;63.69;99639.31;6095537;19;20014;-79
2023/03/13 11:23:42;;;;;;;12.87;2.87;;;;;;;14.90;62.62;99606.94;6101141;19;20237;-79
2023/03/13 11:26:03;;;;;;;14.05;2.67;;;;;;;15.07;61.54;99610.94;6101650;19;20677;-79
2023/03/13 11:28:30;;;;;;;23.25;3.45;;;;;;;15.05;60.27;99615.50;6107220;19;20009;-77
2023/03/13 11:30:59;;;;;;;15.07;3.60;;;;;;;15.27;59.93;99609.34;6078731;19;20549;-79
2023/03/13 11:33:16;;;;;;;17.75;4.13;;;;;;;15.24;58.40;99602.47;6101720;19;20013;-79
2023/03/13 11:35:46;;;;;;;17.38;3.33;;;;;;;15.53;57.51;99615.19;6074342;19;20011;-81
2023/03/13 11:37:55;;;;;;;12.05;3.25;;;;;;;15.43;56.76;99598.34;6100727;19;20035;-80
2023/03/13 11:40:08;;;;;;;19.95;3.50;;;;;;;15.28;57.04;99605.75;6102478;19;20662;-80
2023/03/13 11:42:21;;;;;;;;;;;;;;;15.35;57.50;99613.06;6082737;19;20560;-80
2023/03/13 11:44:32;;;;;;;15.35;3.55;;;;;;;15.10;57.07;99614.16;6097906;19;19919;-80
2023/03/13 11:46:51;;;;;;;18.17;3.85;;;;;;;15.25;57.99;99604.19;6101866;19;20039;-80